Time;durP1;ratioP1;P1;durP2;ratioP2;P2;SDS_P1;SDS_P2;PMS_P1;PMS_P2;Temp;Humidity;BMP_temperature;BMP_pressure;BME280_temperature;BME280_humidity;BME280_pressure;Samples;Min_cycle;Max_cycle;Signal;HPM_P1;HPM_P2
2020/08/28 00:01:06;;;;;;;1.8;0.9;;;;;;;15.49;81.18555;934.5255;;;;
2020/08/28 00:03:30;;;;;;;1.3;0.8;;;;;;;15.5;81.09473;934.5502;;;;
2020/08/28 00:05:56;;;;;;;1.3;0.7;;;;;;;15.45;81.1543;934.5566;;;;
2020/08/28 00:08:21;;;;;;;3.1;0.8;;;;;;;15.45;81.23535;934.5758;;;;
2020/08/28 00:10:46;;;;;;;3.1;1.2;;;;;;;15.37;81.66016;934.5278;;;;
2020/08/28 00:13:11;;;;;;;2.6;0.7;;;;;;;15.31;81.79883;934.4927;;;;
2020/08/28 00:15:36;;;;;;;1.7;0.9;;;;;;;15.1;82.58887;934.4561;;;;
2020/08/28 00:18:03;;;;;;;3.3;0.9;;;;;;;15.17;82.59082;934.5328;;;;
2020/08/28 00:20:28;;;;;;;0.8;0.6;;;;;;;15.26;82.0791;934.5005;;;;
2020/08/28 00:22:53;;;;;;;2.1;1.3;;;;;;;15.32;81.77734;934.5005;;;;
2020/08/28 00:25:22;;;;;;;1.9;0.8;;;;;;;15.19;82.42285;934.4034;;;;
2020/08/28 00:27:47;;;;;;;0.7;0.6;;;;;;;15.15;82.4502;934.4361;;;;
2020/08/28 00:30:12;;;;;;;1.5;0.7;;;;;;;15.16;82.4043;934.3942;;;;
2020/08/28 00:32:37;;;;;;;1.5;0.5;;;;;;;15.2;82.53809;934.441;;;;
2020/08/28 00:35:03;;;;;;;2;0.9;;;;;;;15.13;82.41113;934.3482;;;;
2020/08/28 00:37:28;;;;;;;0.9;0.7;;;;;;;14.95;83.24219;934.3592;;;;
2020/08/28 00:39:53;;;;;;;2.5;1;;;;;;;14.96;83.26855;934.2765;;;;
2020/08/28 00:42:18;;;;;;;7.4;1;;;;;;;15.01;82.88477;934.3086;;;;
2020/08/28 00:44:43;;;;;;;2.4;0.7;;;;;;;15.08;82.48145;934.3033;;;;
2020/08/28 00:47:08;;;;;;;2;0.8;;;;;;;15.17;82.36035;934.2442;;;;
2020/08/28 00:49:35;;;;;;;1.5;0.9;;;;;;;15.23;81.79492;934.2243;;;;
2020/08/28 00:52:00;;;;;;;0.7;0.6;;;;;;;15.18;82.02734;934.2617;;;;
2020/08/28 00:54:25;;;;;;;2.4;1.1;;;;;;;15.18;81.84375;934.2704;;;;
2020/08/28 00:59:33;;;;;;;1.2;0.8;;;;;;;15.1;81.5752;934.2202;;;;
2020/08/28 01:01:42;;;;;;;2.5;0.7;;;;;;;15.16;81.30957;934.2819;;;;
2020/08/28 01:04:09;;;;;;;1.6;0.9;;;;;;;14.97;82.19531;934.1689;;;;
2020/08/28 01:06:34;;;;;;;1.1;0.7;;;;;;;15;82.41992;934.1292;;;;
2020/08/28 01:08:59;;;;;;;1;0.7;;;;;;;15.11;81.81934;934.0541;;;;
2020/08/28 01:11:24;;;;;;;1.3;0.8;;;;;;;15.17;81.28809;934.0652;;;;
2020/08/28 01:13:49;;;;;;;0.9;0.5;;;;;;;15.12;81.20898;934.0613;;;;
2020/08/28 01:16:14;;;;;;;3.7;0.9;;;;;;;15.02;81.69629;934.0122;;;;
2020/08/28 01:18:41;;;;;;;0.5;0.5;;;;;;;15.02;82.30762;933.9954;;;;
2020/08/28 01:21:06;;;;;;;0.6;0.5;;;;;;;15.09;81.44629;933.9727;;;;
2020/08/28 01:23:31;;;;;;;1.5;0.9;;;;;;;14.94;81.83301;933.9609;;;;
2020/08/28 01:25:57;;;;;;;0.4;0.4;;;;;;;14.63;83.1123;933.9664;;;;
2020/08/28 01:28:22;;;;;;;1.3;0.6;;;;;;;14.6;83.62402;933.945;;;;
2020/08/28 01:30:47;;;;;;;1.5;0.4;;;;;;;14.7;83.02051;934.012;;;;
2020/08/28 01:33:12;;;;;;;0.8;0.7;;;;;;;14.74;82.74121;934.0306;;;;
2020/08/28 01:35:37;;;;;;;2.1;0.9;;;;;;;14.76;82.26074;933.9832;;;;
2020/08/28 01:38:04;;;;;;;0.5;0.5;;;;;;;14.74;82.12891;933.9297;;;;
2020/08/28 01:40:29;;;;;;;2.4;1;;;;;;;14.64;82.60742;933.9559;;;;
2020/08/28 01:42:54;;;;;;;1.4;0.9;;;;;;;14.79;81.72363;933.9154;;;;
2020/08/28 01:45:27;;;;;;;0.7;0.5;;;;;;;14.67;82.04785;933.8466;;;;
2020/08/28 01:47:51;;;;;;;1.1;0.7;;;;;;;14.58;82.30664;933.8747;;;;
2020/08/28 01:50:17;;;;;;;0.9;0.7;;;;;;;14.54;82.64453;933.8022;;;;
2020/08/28 01:52:43;;;;;;;3;0.8;;;;;;;14.52;82.7334;933.7842;;;;
2020/08/28 01:55:13;;;;;;;1.9;0.8;;;;;;;14.52;82.56152;933.7905;;;;
2020/08/28 01:57:38;;;;;;;1.7;0.8;;;;;;;14.5;82.76563;933.7491;;;;
2020/08/28 02:00:03;;;;;;;1.4;0.8;;;;;;;14.45;82.99707;933.6295;;;;
2020/08/28 02:02:32;;;;;;;1.1;0.6;;;;;;;14.57;82.64941;933.6713;;;;
2020/08/28 02:04:58;;;;;;;0.8;0.6;;;;;;;14.8;81.63281;933.6379;;;;
2020/08/28 02:07:24;;;;;;;1.1;0.7;;;;;;;14.8;80.89648;933.5377;;;;
2020/08/28 02:09:49;;;;;;;1.4;0.7;;;;;;;14.79;80.98535;933.6131;;;;
2020/08/28 02:12:22;;;;;;;1.7;0.9;;;;;;;14.69;81.41699;933.5978;;;;
2020/08/28 02:14:47;;;;;;;0.8;0.6;;;;;;;14.58;82.03027;933.6231;;;;
2020/08/28 02:17:12;;;;;;;1.8;0.6;;;;;;;14.52;82.44629;933.5477;;;;
2020/08/28 02:19:37;;;;;;;1.4;0.6;;;;;;;14.42;82.87695;933.5095;;;;
2020/08/28 02:22:02;;;;;;;0.8;0.6;;;;;;;14.37;83.0957;933.5636;;;;
2020/08/28 02:24:28;;;;;;;3.8;0.7;;;;;;;14.39;82.98535;933.5994;;;;
2020/08/28 02:26:55;;;;;;;0.8;0.6;;;;;;;14.43;82.78711;933.6047;;;;
2020/08/28 02:29:20;;;;;;;2.1;0.5;;;;;;;14.41;82.64355;933.6175;;;;
2020/08/28 02:31:47;;;;;;;3.9;1;;;;;;;14.27;83.10156;933.5856;;;;
2020/08/28 02:34:14;;;;;;;0.6;0.5;;;;;;;14.13;83.38477;933.6111;;;;
2020/08/28 02:36:39;;;;;;;1.5;0.8;;;;;;;14.05;84.05957;933.5383;;;;
2020/08/28 02:39:04;;;;;;;2.2;1.1;;;;;;;14.05;84.00195;933.5464;;;;
2020/08/28 02:41:29;;;;;;;1.7;0.9;;;;;;;14.1;83.79395;933.5497;;;;
2020/08/28 02:43:54;;;;;;;3.2;0.9;;;;;;;13.99;84.3252;933.5659;;;;
2020/08/28 02:46:19;;;;;;;2.5;0.8;;;;;;;14.06;83.99414;933.4645;;;;
2020/08/28 02:48:45;;;;;;;1.5;0.8;;;;;;;13.98;84.36816;933.5461;;;;
2020/08/28 02:51:10;;;;;;;1.5;0.6;;;;;;;13.97;84.32031;933.5158;;;;
2020/08/28 02:53:36;;;;;;;0.9;0.7;;;;;;;13.97;84.33203;933.4565;;;;
2020/08/28 02:56:01;;;;;;;0.9;0.7;;;;;;;14.02;83.87012;933.3722;;;;
2020/08/28 02:58:31;;;;;;;1.2;0.8;;;;;;;13.99;84.11816;933.3722;;;;
2020/08/28 03:00:58;;;;;;;3.1;0.8;;;;;;;14.02;83.82422;933.3313;;;;
2020/08/28 03:03:23;;;;;;;0.5;0.5;;;;;;;14.02;83.91602;933.3449;;;;
2020/08/28 03:05:50;;;;;;;0.7;0.5;;;;;;;13.94;84.18848;933.2551;;;;
2020/08/28 03:08:16;;;;;;;0.8;0.6;;;;;;;13.86;84.4834;933.2433;;;;
2020/08/28 03:10:41;;;;;;;1.7;0.9;;;;;;;13.75;84.87695;933.2633;;;;
2020/08/28 03:13:06;;;;;;;1.5;0.5;;;;;;;13.63;85.55469;933.3254;;;;
2020/08/28 03:15:31;;;;;;;1.2;0.8;;;;;;;13.72;85.61914;933.2413;;;;
2020/08/28 03:17:56;;;;;;;3.8;0.8;;;;;;;13.86;85.20996;933.1992;;;;
2020/08/28 03:20:23;;;;;;;2.1;0.8;;;;;;;;;;;;;
2020/08/28 03:22:48;;;;;;;1.4;0.9;;;;;;;;;;;;;
2020/08/28 03:25:16;;;;;;;4.2;0.9;;;;;;;;;;;;;
2020/08/28 03:27:41;;;;;;;1;0.8;;;;;;;;;;;;;
2020/08/28 03:30:06;;;;;;;2.1;0.8;;;;;;;;;;;;;
2020/08/28 03:32:31;;;;;;;0.8;0.7;;;;;;;;;;;;;
2020/08/28 03:34:56;;;;;;;2;0.9;;;;;;;;;;;;;
2020/08/28 03:37:21;;;;;;;0.9;0.8;;;;;;;;;;;;;
2020/08/28 03:39:46;;;;;;;3;0.9;;;;;;;;;;;;;
2020/08/28 03:42:11;;;;;;;1.6;0.8;;;;;;;;;;;;;
2020/08/28 03:44:36;;;;;;;0.7;0.6;;;;;;;;;;;;;
2020/08/28 03:47:03;;;;;;;0.7;0.7;;;;;;;;;;;;;
2020/08/28 03:49:28;;;;;;;2;0.9;;;;;;;;;;;;;
2020/08/28 03:52:18;;;;;;;4.1;1.2;;;;;;;;;;;;;
2020/08/28 03:54:18;;;;;;;1.2;0.7;;;;;;;;;;;;;
2020/08/28 03:56:43;;;;;;;1.3;1;;;;;;;;;;;;;
2020/08/28 03:59:09;;;;;;;1.2;0.7;;;;;;;;;;;;;
2020/08/28 04:02:29;;;;;;;3.3;1.1;;;;;;;14.45;80.57813;932.955;;;;
2020/08/28 04:04:56;;;;;;;1.6;0.7;;;;;;;14.36;80.76855;933.0447;;;;
2020/08/28 04:07:21;;;;;;;3.5;0.9;;;;;;;14.1;82.38965;933.0164;;;;
2020/08/28 04:09:47;;;;;;;2.7;1;;;;;;;13.88;83.64746;932.9902;;;;
2020/08/28 04:12:12;;;;;;;1.8;0.9;;;;;;;13.64;85.08496;933.0502;;;;
2020/08/28 04:14:37;;;;;;;1.7;0.8;;;;;;;13.68;85.02344;932.9769;;;;
2020/08/28 04:17:02;;;;;;;1.4;0.8;;;;;;;13.7;85.1416;932.9903;;;;
2020/08/28 04:19:27;;;;;;;1.6;1.1;;;;;;;13.93;83.97949;933.0111;;;;
2020/08/28 04:21:52;;;;;;;3.6;1.1;;;;;;;13.94;83.71875;932.9861;;;;
2020/08/28 04:24:17;;;;;;;2.4;1;;;;;;;14.09;83.27246;932.9839;;;;
2020/08/28 04:26:43;;;;;;;2.3;1;;;;;;;14.19;82.55664;933.029;;;;
2020/08/28 04:29:08;;;;;;;1.2;0.8;;;;;;;14.21;82.37402;933.044;;;;
2020/08/28 04:31:33;;;;;;;0.7;0.5;;;;;;;14.19;82.21094;933.0017;;;;
2020/08/28 04:33:58;;;;;;;3.5;1;;;;;;;14.07;82.64941;932.9961;;;;
2020/08/28 04:36:25;;;;;;;1.2;0.7;;;;;;;14.14;82.36133;933.0425;;;;
2020/08/28 04:38:50;;;;;;;1.5;1;;;;;;;14.1;82.36621;932.9628;;;;
2020/08/28 04:41:19;;;;;;;2;1;;;;;;;14.05;82.55176;933.0308;;;;
2020/08/28 04:43:45;;;;;;;1.6;1.1;;;;;;;14.02;82.8916;933.0415;;;;
2020/08/28 04:46:13;;;;;;;1.1;0.9;;;;;;;14;83.0498;933.0367;;;;
2020/08/28 04:48:42;;;;;;;3;1.4;;;;;;;14.09;82.65234;932.9927;;;;
2020/08/28 04:51:07;;;;;;;13.8;1.5;;;;;;;14.05;82.78223;932.853;;;;
2020/08/28 04:53:32;;;;;;;3.4;1.3;;;;;;;14.12;82.69238;932.817;;;;
2020/08/28 04:55:57;;;;;;;1.9;0.9;;;;;;;14.16;82.5166;932.8171;;;;
2020/08/28 04:58:22;;;;;;;2.3;1.1;;;;;;;13.98;83.34375;932.7744;;;;
2020/08/28 05:00:47;;;;;;;1.4;0.8;;;;;;;13.98;83.43555;932.68;;;;
2020/08/28 05:03:12;;;;;;;2.3;1.1;;;;;;;14.1;83.21875;932.6426;;;;
2020/08/28 05:05:40;;;;;;;2.6;1;;;;;;;14.24;82.95801;932.5809;;;;
2020/08/28 05:08:05;;;;;;;1.2;0.8;;;;;;;14.23;82.71289;932.5963;;;;
2020/08/28 05:10:30;;;;;;;4.8;0.9;;;;;;;14.2;82.77637;932.5965;;;;
2020/08/28 05:12:55;;;;;;;1.4;1.1;;;;;;;14.2;82.8916;932.6124;;;;
2020/08/28 05:15:29;;;;;;;2.3;1.3;;;;;;;14.24;82.24219;932.6763;;;;
2020/08/28 05:17:59;;;;;;;4.6;1.4;;;;;;;14;83.25684;932.6228;;;;
2020/08/28 05:20:25;;;;;;;6.9;1.9;;;;;;;13.99;83.62305;932.6614;;;;
2020/08/28 05:22:50;;;;;;;3.6;1.5;;;;;;;13.96;83.65234;932.6401;;;;
2020/08/28 05:25:15;;;;;;;3.7;1.3;;;;;;;13.99;83.73828;932.6406;;;;
2020/08/28 05:27:42;;;;;;;4.4;1.1;;;;;;;13.75;84.87695;932.6423;;;;
2020/08/28 05:30:07;;;;;;;3;1.1;;;;;;;13.59;85.92578;932.6351;;;;
2020/08/28 05:32:34;;;;;;;1.3;0.9;;;;;;;13.8;85.77148;932.5698;;;;
2020/08/28 05:35:01;;;;;;;0.8;0.6;;;;;;;14.06;84.44336;932.5591;;;;
2020/08/28 05:37:26;;;;;;;1.6;0.7;;;;;;;14.23;83.53027;932.5419;;;;
2020/08/28 05:39:51;;;;;;;2.8;1;;;;;;;14.5;82.78906;932.4977;;;;
2020/08/28 05:42:17;;;;;;;1.2;0.8;;;;;;;14.83;81.75391;932.4869;;;;
2020/08/28 05:44:44;;;;;;;4.3;1;;;;;;;15.16;81.69043;932.4734;;;;
2020/08/28 05:47:12;;;;;;;1.9;1;;;;;;;15.37;79.91699;932.4539;;;;
2020/08/28 05:49:38;;;;;;;1.5;0.8;;;;;;;15.65;79.11328;932.4832;;;;
2020/08/28 05:52:09;;;;;;;1.8;1;;;;;;;15.61;77.85938;932.4596;;;;
2020/08/28 05:54:38;;;;;;;7.1;0.8;;;;;;;15.85;76.76855;932.4122;;;;
2020/08/28 05:57:03;;;;;;;1.5;0.6;;;;;;;16.36;75.35254;932.3571;;;;
2020/08/28 05:59:28;;;;;;;1.1;0.8;;;;;;;17.18;72.30566;932.3236;;;;
2020/08/28 06:01:54;;;;;;;1.9;1.1;;;;;;;17.55;70.17383;932.255;;;;
2020/08/28 06:04:21;;;;;;;1.1;0.8;;;;;;;17.34;70.91797;932.2504;;;;
2020/08/28 06:06:48;;;;;;;2;1;;;;;;;17.04;71.91113;932.1816;;;;
2020/08/28 06:09:13;;;;;;;0.8;0.7;;;;;;;16.96;71.66602;932.1567;;;;
2020/08/28 06:11:38;;;;;;;0.7;0.6;;;;;;;17.21;70.54785;932.0887;;;;
2020/08/28 06:14:07;;;;;;;0.7;0.5;;;;;;;18.46;66.45898;932.1426;;;;
2020/08/28 06:16:36;;;;;;;1;0.6;;;;;;;20.07;62.31445;932.1235;;;;
2020/08/28 06:19:02;;;;;;;3.5;1;;;;;;;21.62;55.58789;932.0457;;;;
2020/08/28 06:21:26;;;;;;;2.8;0.8;;;;;;;22.45;52.94727;932.0485;;;;
2020/08/28 06:23:51;;;;;;;0.5;0.3;;;;;;;22.17;52.38672;931.9663;;;;
2020/08/28 06:26:19;;;;;;;0.4;0.3;;;;;;;23.1;50.62695;932.0251;;;;
2020/08/28 06:28:47;;;;;;;0.3;0.3;;;;;;;23.58;49.03613;931.9684;;;;
2020/08/28 06:31:13;;;;;;;1.2;0.7;;;;;;;22.98;49.97949;931.9908;;;;
2020/08/28 06:33:37;;;;;;;2.5;0.7;;;;;;;22.63;50.98535;931.876;;;;
2020/08/28 06:36:06;;;;;;;0.8;0.5;;;;;;;22.05;53.34473;931.9053;;;;
2020/08/28 06:38:31;;;;;;;2.4;0.6;;;;;;;22.39;51.9082;931.9014;;;;
2020/08/28 06:41:00;;;;;;;5.7;1.1;;;;;;;23;50.69922;931.8492;;;;
2020/08/28 06:43:25;;;;;;;0.7;0.6;;;;;;;24.15;47.51953;931.7994;;;;
2020/08/28 06:45:50;;;;;;;1.7;0.5;;;;;;;23.61;49.95605;931.8264;;;;
2020/08/28 06:48:16;;;;;;;1.1;0.7;;;;;;;25.11;47.55273;931.7748;;;;
2020/08/28 06:50:41;;;;;;;1.3;0.7;;;;;;;24.58;47.9082;931.7888;;;;
2020/08/28 06:53:06;;;;;;;0.9;0.7;;;;;;;22.66;51.16504;931.7458;;;;
2020/08/28 06:55:34;;;;;;;0.7;0.5;;;;;;;21.93;53.91504;931.6987;;;;
2020/08/28 06:57:59;;;;;;;2.7;0.9;;;;;;;22.81;53.56641;931.7045;;;;
2020/08/28 07:00:32;;;;;;;1.9;0.8;;;;;;;23.48;49.7998;931.6941;;;;
2020/08/28 07:02:57;;;;;;;2.2;0.7;;;;;;;23.66;49.79785;931.5884;;;;
2020/08/28 07:05:24;;;;;;;1.3;0.8;;;;;;;24.01;49.60059;931.6298;;;;
2020/08/28 07:07:50;;;;;;;0.8;0.6;;;;;;;23.52;51.55859;931.6511;;;;
2020/08/28 07:10:15;;;;;;;1.5;0.4;;;;;;;23.04;53.05273;931.5958;;;;
2020/08/28 07:12:40;;;;;;;1.6;0.9;;;;;;;23.72;51.34473;931.5806;;;;
2020/08/28 07:15:05;;;;;;;1;0.5;;;;;;;23.95;48.78223;931.4824;;;;
2020/08/28 07:17:31;;;;;;;1.3;0.5;;;;;;;24.03;50.39258;931.4331;;;;
2020/08/28 07:19:56;;;;;;;1.2;0.7;;;;;;;24.95;48.36133;931.4066;;;;
2020/08/28 07:22:24;;;;;;;1.4;0.6;;;;;;;26.03;47.0332;931.3822;;;;
2020/08/28 07:24:49;;;;;;;0.4;0.4;;;;;;;26.08;44.04688;931.2961;;;;
2020/08/28 07:27:19;;;;;;;2.1;0.4;;;;;;;24.78;48.9668;931.3313;;;;
2020/08/28 07:29:44;;;;;;;2.6;0.7;;;;;;;26.47;45.84863;931.2932;;;;
2020/08/28 07:32:09;;;;;;;0.8;0.6;;;;;;;26.01;44.20605;931.2731;;;;
2020/08/28 07:34:35;;;;;;;0.5;0.5;;;;;;;25.66;45.12988;931.2897;;;;
2020/08/28 07:37:00;;;;;;;0.9;0.4;;;;;;;26.43;44.06934;931.2301;;;;
2020/08/28 07:39:25;;;;;;;0.6;0.4;;;;;;;27.64;41.03125;931.1042;;;;
2020/08/28 07:41:50;;;;;;;0.3;0.3;;;;;;;29.23;38.97266;931.0519;;;;
2020/08/28 07:44:15;;;;;;;0.7;0.6;;;;;;;29.36;36.57813;931.0109;;;;
2020/08/28 07:46:40;;;;;;;0.6;0.3;;;;;;;30.42;35.99414;931.0048;;;;
2020/08/28 07:49:05;;;;;;;1.4;0.4;;;;;;;32.6;32.92773;930.9667;;;;
2020/08/28 07:51:31;;;;;;;1.6;0.4;;;;;;;32.7;32.01172;930.8416;;;;
2020/08/28 07:53:57;;;;;;;2.4;0.6;;;;;;;32.81;30.74707;930.7863;;;;
2020/08/28 07:56:22;;;;;;;6.8;0.4;;;;;;;33.84;30.41895;930.7217;;;;
2020/08/28 07:58:47;;;;;;;1;0.5;;;;;;;33.42;29.59766;930.6926;;;;
2020/08/28 08:01:17;;;;;;;0.5;0.5;;;;;;;33.18;30.69922;930.5806;;;;
2020/08/28 08:03:42;;;;;;;0.4;0.4;;;;;;;31.24;32.94922;930.5966;;;;
2020/08/28 08:06:08;;;;;;;11.1;0.6;;;;;;;33.8;30.57227;930.5668;;;;
2020/08/28 08:08:35;;;;;;;1.4;0.4;;;;;;;35.61;26.36914;930.4914;;;;
2020/08/28 08:11:00;;;;;;;23.2;0.8;;;;;;;35.86;25.87598;930.4742;;;;
2020/08/28 08:13:25;;;;;;;0.5;0.4;;;;;;;35.35;26.11328;930.4305;;;;
2020/08/28 08:15:50;;;;;;;5.3;0.6;;;;;;;34.05;27.84473;930.428;;;;
2020/08/28 08:18:15;;;;;;;2;0.6;;;;;;;34.14;27.24805;930.3245;;;;
2020/08/28 08:20:41;;;;;;;2.2;1;;;;;;;34.55;28.28516;930.3437;;;;
2020/08/28 08:23:06;;;;;;;0.4;0.3;;;;;;;35.58;26.31934;930.293;;;;
2020/08/28 08:25:31;;;;;;;2.9;0.8;;;;;;;34.41;26.17969;930.2435;;;;
2020/08/28 08:27:57;;;;;;;1.7;0.6;;;;;;;33.49;28.26758;930.1622;;;;
2020/08/28 08:30:27;;;;;;;0.5;0.4;;;;;;;33.19;29.43848;930.1522;;;;
2020/08/28 08:32:52;;;;;;;1;0.7;;;;;;;32.74;29.10938;930.177;;;;
2020/08/28 08:35:19;;;;;;;0.9;0.7;;;;;;;32.81;29.88184;930.166;;;;
2020/08/28 08:37:44;;;;;;;4;0.6;;;;;;;31.86;30.65723;930.1301;;;;
2020/08/28 08:40:13;;;;;;;0.7;0.5;;;;;;;32.93;30.38184;930.1635;;;;
2020/08/28 08:42:38;;;;;;;2;0.5;;;;;;;33.01;31.03613;930.0647;;;;
2020/08/28 08:45:03;;;;;;;1.8;0.5;;;;;;;32.81;29.75;929.9917;;;;
2020/08/28 08:47:31;;;;;;;1.9;0.8;;;;;;;31.41;31.76465;929.9741;;;;
2020/08/28 08:49:57;;;;;;;4.8;0.7;;;;;;;30.5;33.76758;930.0474;;;;
2020/08/28 08:52:22;;;;;;;6.6;0.6;;;;;;;29.5;35.66016;930.0349;;;;
2020/08/28 08:54:47;;;;;;;0.8;0.5;;;;;;;30.29;35.13672;929.9995;;;;
2020/08/28 08:57:12;;;;;;;0.5;0.5;;;;;;;30.88;34.47754;929.9524;;;;
2020/08/28 08:59:37;;;;;;;1.3;0.4;;;;;;;30.88;35.05078;929.915;;;;
2020/08/28 09:02:02;;;;;;;3.9;0.7;;;;;;;32.1;32.85645;929.873;;;;
2020/08/28 09:04:27;;;;;;;0.5;0.4;;;;;;;33.22;31.54395;929.9084;;;;
2020/08/28 09:06:54;;;;;;;0.6;0.4;;;;;;;31.35;32.69434;929.9299;;;;
2020/08/28 09:09:19;;;;;;;0.4;0.3;;;;;;;30.95;34.72266;929.9021;;;;
2020/08/28 09:11:44;;;;;;;1.2;0.6;;;;;;;31.71;35.63086;929.8053;;;;
2020/08/28 09:14:09;;;;;;;1.3;0.5;;;;;;;31.31;32.9541;929.7925;;;;
2020/08/28 09:16:35;;;;;;;0.3;0.3;;;;;;;31.58;36.15918;929.7408;;;;
2020/08/28 09:19:00;;;;;;;0.7;0.4;;;;;;;31.2;36.71387;929.7122;;;;
2020/08/28 09:21:25;;;;;;;0.7;0.3;;;;;;;30.91;35.50781;929.6802;;;;
2020/08/28 09:23:50;;;;;;;0.7;0.4;;;;;;;31.83;36.31055;929.6094;;;;
2020/08/28 09:26:15;;;;;;;0.2;0.2;;;;;;;31.68;34.79004;929.64;;;;
2020/08/28 09:28:40;;;;;;;1.2;0.5;;;;;;;31.71;36.65918;929.5203;;;;
2020/08/28 09:31:10;;;;;;;1;0.5;;;;;;;32.83;33.92969;929.5027;;;;
2020/08/28 09:33:37;;;;;;;1.1;0.7;;;;;;;33.22;32.08398;929.4738;;;;
2020/08/28 09:36:02;;;;;;;0.9;0.5;;;;;;;32.74;31.58203;929.3903;;;;
2020/08/28 09:38:32;;;;;;;2;0.4;;;;;;;32.86;33.40332;929.3309;;;;
2020/08/28 09:40:58;;;;;;;1.2;0.5;;;;;;;32.81;34.61328;929.272;;;;
2020/08/28 09:43:23;;;;;;;0.5;0.4;;;;;;;32.89;32.36133;929.2186;;;;
2020/08/28 09:45:49;;;;;;;0.9;0.4;;;;;;;32.75;31.6543;929.1733;;;;
2020/08/28 09:48:14;;;;;;;0.4;0.3;;;;;;;32.46;33.62598;929.116;;;;
2020/08/28 09:50:39;;;;;;;0.3;0.3;;;;;;;32.26;31.83594;929.0387;;;;
2020/08/28 09:53:05;;;;;;;0.3;0.3;;;;;;;32.2;32.19141;928.995;;;;
2020/08/28 09:55:31;;;;;;;1;0.5;;;;;;;32.24;32.38672;928.967;;;;
2020/08/28 09:57:56;;;;;;;0.6;0.3;;;;;;;32.15;32.15332;928.92;;;;
2020/08/28 10:00:28;;;;;;;0.4;0.1;;;;;;;32.15;32.81152;928.9231;;;;
2020/08/28 10:02:53;;;;;;;0.2;0.2;;;;;;;32.08;31.99121;928.8401;;;;
2020/08/28 10:05:19;;;;;;;0.4;0.3;;;;;;;32.43;32.66406;928.8157;;;;
2020/08/28 10:07:44;;;;;;;0.4;0.4;;;;;;;32.65;31.59961;928.7792;;;;
2020/08/28 10:10:09;;;;;;;0.2;0.2;;;;;;;32.94;30.80371;928.6937;;;;
2020/08/28 10:12:34;;;;;;;0.5;0.4;;;;;;;32.65;32.82324;928.5786;;;;
2020/08/28 10:14:59;;;;;;;0.4;0.2;;;;;;;32.98;30.79395;928.5376;;;;
2020/08/28 10:17:24;;;;;;;1.2;0.3;;;;;;;33.49;32.8252;928.4978;;;;
2020/08/28 10:19:50;;;;;;;0.4;0.2;;;;;;;34.14;29.83691;928.4573;;;;
2020/08/28 10:22:15;;;;;;;1.4;0.5;;;;;;;34.13;29.72754;928.3867;;;;
2020/08/28 10:24:40;;;;;;;0.3;0.3;;;;;;;33.42;27.98633;928.3679;;;;
2020/08/28 10:27:06;;;;;;;0.6;0.3;;;;;;;33.5;30.15625;928.3345;;;;
2020/08/28 10:29:31;;;;;;;0.3;0.2;;;;;;;33.98;28.61035;928.2263;;;;
2020/08/28 10:31:59;;;;;;;0.4;0.3;;;;;;;33.88;28.92969;928.2004;;;;
2020/08/28 10:34:25;;;;;;;1.1;0.6;;;;;;;33.37;30.11133;928.1664;;;;
2020/08/28 10:36:49;;;;;;;1.5;0.6;;;;;;;33.42;31.4248;928.1378;;;;
2020/08/28 10:39:17;;;;;;;0.4;0.3;;;;;;;33.46;33.74805;928.0252;;;;
2020/08/28 10:41:40;;;;;;;0.6;0.2;;;;;;;33.43;31.26953;928.0004;;;;
2020/08/28 10:44:05;;;;;;;1.3;0.4;;;;;;;33.95;30.91992;927.934;;;;
2020/08/28 10:46:30;;;;;;;0.4;0.3;;;;;;;34.36;31.14063;927.8339;;;;
2020/08/28 10:48:59;;;;;;;0.9;0.6;;;;;;;34.74;30.82813;927.7888;;;;
2020/08/28 10:51:24;;;;;;;1.1;0.4;;;;;;;34.75;31.02246;927.8286;;;;
2020/08/28 10:53:49;;;;;;;0.3;0.2;;;;;;;35.78;28.14355;927.8299;;;;
2020/08/28 10:56:14;;;;;;;3;0.7;;;;;;;36.6;28.08496;927.769;;;;
2020/08/28 10:58:39;;;;;;;0.3;0.2;;;;;;;36.47;28.73145;927.706;;;;
2020/08/28 11:01:04;;;;;;;0.7;0.3;;;;;;;36.58;27.7334;927.6501;;;;
2020/08/28 11:03:29;;;;;;;0.7;0.3;;;;;;;36.97;26.13281;927.6094;;;;
2020/08/28 11:05:54;;;;;;;0.6;0.3;;;;;;;36.26;26.89063;927.6003;;;;
2020/08/28 11:08:20;;;;;;;0.4;0.3;;;;;;;35.26;28.50977;927.5291;;;;
2020/08/28 11:10:48;;;;;;;0.4;0.2;;;;;;;34.74;30.74414;927.469;;;;
2020/08/28 11:13:13;;;;;;;0.2;0.2;;;;;;;34.33;30.65625;927.4222;;;;
2020/08/28 11:15:38;;;;;;;0.3;0.3;;;;;;;34.13;30.67969;927.3228;;;;
2020/08/28 11:18:03;;;;;;;0.6;0.3;;;;;;;34;31.44043;927.267;;;;
2020/08/28 11:20:28;;;;;;;0.4;0.3;;;;;;;33.92;31.31445;927.2282;;;;
2020/08/28 11:22:53;;;;;;;0.3;0.3;;;;;;;33.56;32.76953;927.2404;;;;
2020/08/28 11:25:20;;;;;;;0.5;0.2;;;;;;;33.64;31.46387;927.1982;;;;
2020/08/28 11:27:47;;;;;;;1.2;0.5;;;;;;;33.45;32.70117;927.231;;;;
2020/08/28 11:30:15;;;;;;;0.4;0.3;;;;;;;33.12;33.86719;927.228;;;;
2020/08/28 11:32:40;;;;;;;0.3;0.1;;;;;;;32.77;33.19336;927.1853;;;;
2020/08/28 11:35:05;;;;;;;0.9;0.2;;;;;;;32.05;32.93652;927.146;;;;
2020/08/28 11:37:30;;;;;;;0.2;0.2;;;;;;;31.51;33.43555;927.0901;;;;
2020/08/28 11:39:55;;;;;;;1.9;0.3;;;;;;;31.03;37;927.0558;;;;
2020/08/28 11:42:20;;;;;;;0.8;0.4;;;;;;;30.88;38.23145;926.9827;;;;
2020/08/28 11:44:46;;;;;;;1.4;0.5;;;;;;;30.72;38.95801;927.0147;;;;
2020/08/28 11:47:11;;;;;;;0.5;0.3;;;;;;;30.55;39.625;927.1397;;;;
2020/08/28 11:49:36;;;;;;;0.1;0.1;;;;;;;30.26;40.51855;927.1046;;;;
2020/08/28 11:52:01;;;;;;;1;0.6;;;;;;;30.13;42.92969;927.1401;;;;
2020/08/28 11:54:26;;;;;;;0.8;0.4;;;;;;;29.83;43.23535;927.1152;;;;
2020/08/28 11:56:51;;;;;;;0.4;0.2;;;;;;;29.61;42.12988;927.0377;;;;
2020/08/28 11:59:16;;;;;;;0.5;0.4;;;;;;;29.21;42.99707;927.1046;;;;
2020/08/28 12:01:42;;;;;;;2.1;0.7;;;;;;;29.19;42.47168;926.991;;;;
2020/08/28 12:04:07;;;;;;;0.5;0.2;;;;;;;29.19;41.73242;926.928;;;;
2020/08/28 12:06:33;;;;;;;0.2;0.2;;;;;;;29.06;44.30371;926.9583;;;;
2020/08/28 12:08:58;;;;;;;0.4;0.4;;;;;;;28.78;41.64648;926.9902;;;;
2020/08/28 12:11:23;;;;;;;0.4;0.3;;;;;;;28.71;41.7002;926.9785;;;;
2020/08/28 12:13:50;;;;;;;0.2;0.2;;;;;;;28.85;40.4043;926.9892;;;;
2020/08/28 12:16:15;;;;;;;0.5;0.4;;;;;;;29.08;41.55566;926.9744;;;;
2020/08/28 12:18:40;;;;;;;0.6;0.5;;;;;;;29.26;39.71387;926.9612;;;;
2020/08/28 12:21:05;;;;;;;0.6;0.3;;;;;;;29.22;43.37988;926.9556;;;;
2020/08/28 12:23:30;;;;;;;2.2;0.2;;;;;;;29.62;42.05859;926.9553;;;;
2020/08/28 12:25:55;;;;;;;0.8;0.4;;;;;;;29.94;40.77637;926.8794;;;;
2020/08/28 12:28:20;;;;;;;1.9;0.6;;;;;;;30.08;38.97461;926.7967;;;;
2020/08/28 12:30:53;;;;;;;0.8;0.5;;;;;;;30.12;40.67285;926.7836;;;;
2020/08/28 12:33:18;;;;;;;0.2;0.2;;;;;;;30.28;40.60352;926.7545;;;;
2020/08/28 12:35:43;;;;;;;0.6;0.5;;;;;;;30.37;42.42773;926.762;;;;
2020/08/28 12:38:09;;;;;;;0.3;0.3;;;;;;;30.52;40.20801;926.7222;;;;
2020/08/28 12:40:35;;;;;;;0.6;0.3;;;;;;;30.52;40.0293;926.6571;;;;
2020/08/28 12:43:00;;;;;;;1;0.4;;;;;;;30.56;40.12793;926.6382;;;;
2020/08/28 12:45:26;;;;;;;4.1;0.5;;;;;;;30.66;38.39063;926.5728;;;;
2020/08/28 12:47:51;;;;;;;1.2;0.5;;;;;;;30.62;39.57129;926.5295;;;;
2020/08/28 12:50:18;;;;;;;0.4;0.3;;;;;;;30.1;42.4375;926.4743;;;;
2020/08/28 12:52:43;;;;;;;1.6;0.6;;;;;;;29.86;40.51855;926.4205;;;;
2020/08/28 12:55:10;;;;;;;0.8;0.5;;;;;;;29.73;41.60449;926.3719;;;;
2020/08/28 12:57:35;;;;;;;0.7;0.4;;;;;;;29.35;40.40234;926.3908;;;;
2020/08/28 13:00:01;;;;;;;0.8;0.7;;;;;;;29.58;42.24512;926.341;;;;
2020/08/28 13:02:25;;;;;;;0.6;0.4;;;;;;;29.2;43.18652;926.3597;;;;
2020/08/28 13:04:51;;;;;;;0.3;0.2;;;;;;;29.21;43.86719;926.3421;;;;
2020/08/28 13:07:16;;;;;;;0.3;0.2;;;;;;;29.17;42.0293;926.3061;;;;
2020/08/28 13:09:41;;;;;;;0.7;0.3;;;;;;;29.21;41.58008;926.3005;;;;
2020/08/28 13:12:09;;;;;;;0.6;0.4;;;;;;;28.97;42.02148;926.3572;;;;
2020/08/28 13:14:34;;;;;;;0.7;0.4;;;;;;;28.63;43.95313;926.4504;;;;
2020/08/28 13:17:02;;;;;;;0.2;0.2;;;;;;;28.37;45.0332;926.4395;;;;
2020/08/28 13:19:27;;;;;;;0.4;0.3;;;;;;;28.42;43.94336;926.3557;;;;
2020/08/28 13:21:52;;;;;;;2.7;0.5;;;;;;;27.98;45.06543;926.3178;;;;
2020/08/28 13:24:18;;;;;;;0.5;0.3;;;;;;;28.06;44.06348;926.3014;;;;
2020/08/28 13:26:45;;;;;;;0.7;0.4;;;;;;;28.24;42.9873;926.2213;;;;
2020/08/28 13:29:10;;;;;;;3;0.5;;;;;;;28.41;43.45605;926.2545;;;;
2020/08/28 13:31:35;;;;;;;2.2;0.6;;;;;;;28.42;44.57422;926.2;;;;
2020/08/28 13:34:01;;;;;;;1.7;0.3;;;;;;;28.7;42.15137;926.1823;;;;
2020/08/28 13:36:26;;;;;;;0.4;0.3;;;;;;;29.07;42.13867;926.0967;;;;
2020/08/28 13:38:51;;;;;;;0.6;0.2;;;;;;;29.64;41.46484;926.1428;;;;
2020/08/28 13:41:16;;;;;;;0.4;0.3;;;;;;;29.89;39.60254;926.2253;;;;
2020/08/28 13:43:41;;;;;;;0.8;0.5;;;;;;;29.89;40.5459;926.278;;;;
2020/08/28 13:46:06;;;;;;;1.8;0.4;;;;;;;29.74;40.81836;926.229;;;;
2020/08/28 13:48:31;;;;;;;0.6;0.4;;;;;;;29.94;44.27148;926.2462;;;;
2020/08/28 13:50:56;;;;;;;0.8;0.3;;;;;;;30.02;44.80469;926.3378;;;;
2020/08/28 13:53:21;;;;;;;1.7;0.4;;;;;;;30.05;43.20801;926.3876;;;;
2020/08/28 13:55:47;;;;;;;0.5;0.2;;;;;;;29.71;42.01953;926.2587;;;;
2020/08/28 13:58:12;;;;;;;0.6;0.4;;;;;;;29.67;45.79492;926.3681;;;;
2020/08/28 14:00:40;;;;;;;0.7;0.3;;;;;;;29.81;42.7207;926.3408;;;;
2020/08/28 14:03:05;;;;;;;0.8;0.4;;;;;;;29.89;41.90527;926.2784;;;;
2020/08/28 14:05:31;;;;;;;1.5;0.4;;;;;;;29.91;41.63184;926.2449;;;;
2020/08/28 14:07:56;;;;;;;0.8;0.5;;;;;;;29.81;43.3291;926.2719;;;;
2020/08/28 14:10:21;;;;;;;0.7;0.4;;;;;;;29.71;41.44727;926.3298;;;;
2020/08/28 14:12:46;;;;;;;0.4;0.3;;;;;;;29.43;42.73242;926.431;;;;
2020/08/28 14:15:14;;;;;;;1;0.4;;;;;;;28.8;44.30273;926.4549;;;;
2020/08/28 14:17:39;;;;;;;0.8;0.4;;;;;;;28.72;42.09375;926.4494;;;;
2020/08/28 14:20:04;;;;;;;0.7;0.5;;;;;;;28.57;43.78125;926.4515;;;;
2020/08/28 14:22:29;;;;;;;0.3;0.2;;;;;;;28.1;41.71582;926.4294;;;;
2020/08/28 14:24:54;;;;;;;0.6;0.3;;;;;;;28.26;41.64648;926.4606;;;;
2020/08/28 14:27:20;;;;;;;0.8;0.6;;;;;;;27.99;43.9375;926.4169;;;;
2020/08/28 14:29:45;;;;;;;2.7;0.7;;;;;;;28.06;44.37305;926.3947;;;;
2020/08/28 14:32:11;;;;;;;1.9;0.7;;;;;;;28.29;44.44336;926.3947;;;;